createdAt,value
2018-08-06T00:02:37.263Z,14.80
2018-08-06T00:05:06.302Z,14.80
2018-08-06T00:07:34.544Z,14.70
2018-08-06T00:10:02.832Z,14.70
2018-08-06T00:12:31.080Z,14.70
2018-08-06T00:14:59.286Z,14.60
2018-08-06T00:17:27.552Z,14.60
2018-08-06T00:19:55.772Z,14.60
2018-08-06T00:22:23.987Z,14.50
2018-08-06T00:24:52.209Z,14.50
2018-08-06T00:27:20.444Z,14.50
2018-08-06T00:29:48.689Z,14.40
2018-08-06T00:32:16.971Z,14.40
2018-08-06T00:34:45.196Z,14.40
2018-08-06T00:37:13.468Z,14.40
2018-08-06T00:39:41.696Z,14.30
2018-08-06T00:42:09.907Z,14.30
2018-08-06T00:44:38.131Z,14.30
2018-08-06T00:47:06.742Z,14.20
2018-08-06T00:49:34.996Z,14.20
2018-08-06T00:52:03.211Z,14.10
2018-08-06T00:54:31.440Z,14.10
2018-08-06T00:56:59.665Z,14.10
2018-08-06T00:59:27.888Z,14.10
2018-08-06T01:01:56.133Z,14.00
2018-08-06T01:04:24.372Z,14.00
2018-08-06T01:06:52.611Z,14.00
2018-08-06T01:09:20.839Z,13.90
2018-08-06T01:11:49.077Z,13.80
2018-08-06T01:14:17.317Z,13.80
2018-08-06T01:16:45.620Z,13.90
2018-08-06T01:19:13.875Z,13.90
2018-08-06T01:21:42.076Z,13.90
2018-08-06T01:24:10.305Z,13.90
2018-08-06T01:26:38.564Z,13.80
2018-08-06T01:29:06.876Z,13.80
2018-08-06T01:31:35.128Z,13.80
2018-08-06T01:34:03.357Z,13.80
2018-08-06T01:36:31.571Z,13.80
2018-08-06T01:38:59.782Z,13.70
2018-08-06T01:41:27.997Z,13.70
2018-08-06T01:43:56.235Z,13.70
2018-08-06T01:46:24.450Z,13.70
2018-08-06T01:48:52.676Z,13.60
2018-08-06T01:51:20.898Z,13.60
2018-08-06T01:53:49.150Z,13.60
2018-08-06T01:56:17.372Z,13.50
2018-08-06T01:58:45.612Z,13.50
2018-08-06T02:01:13.794Z,13.40
2018-08-06T02:03:42.017Z,13.40
2018-08-06T02:06:10.237Z,13.40
2018-08-06T02:08:55.226Z,13.30
2018-08-06T02:11:23.473Z,13.30
2018-08-06T02:13:51.735Z,13.30
2018-08-06T02:16:19.948Z,13.30
2018-08-06T02:18:48.190Z,13.20
2018-08-06T02:21:16.434Z,13.30
2018-08-06T02:26:12.640Z,13.20
2018-08-06T02:28:40.862Z,13.10
2018-08-06T02:31:09.087Z,13.10
2018-08-06T02:33:37.320Z,13.10
2018-08-06T02:36:05.569Z,13.10
2018-08-06T02:38:33.822Z,13.10
2018-08-06T02:41:02.065Z,13.10
2018-08-06T02:43:30.280Z,13.10
2018-08-06T02:45:58.522Z,13.10
2018-08-06T02:48:26.755Z,13.10
2018-08-06T02:50:54.975Z,13.10
2018-08-06T02:53:23.260Z,13.10
2018-08-06T02:55:51.517Z,13.00
2018-08-06T02:58:19.744Z,13.00
2018-08-06T03:00:47.972Z,13.00
2018-08-06T03:03:16.241Z,13.00
2018-08-06T03:05:44.468Z,13.00
2018-08-06T03:10:40.728Z,12.90
2018-08-06T03:13:08.964Z,12.90
2018-08-06T03:15:37.192Z,12.90
2018-08-06T03:18:05.820Z,12.90
2018-08-06T03:20:34.048Z,12.90
2018-08-06T03:23:02.265Z,12.80
2018-08-06T03:25:30.486Z,12.80
2018-08-06T03:27:58.722Z,12.70
2018-08-06T03:30:26.947Z,12.70
2018-08-06T03:32:55.177Z,12.70
2018-08-06T03:35:23.387Z,12.80
2018-08-06T03:37:51.677Z,12.80
2018-08-06T03:40:19.927Z,12.70
2018-08-06T03:42:48.134Z,12.70
2018-08-06T03:45:16.397Z,12.70
2018-08-06T03:47:44.616Z,12.80
2018-08-06T03:50:13.702Z,12.70
2018-08-06T03:55:11.070Z,12.70
2018-08-06T03:57:39.841Z,12.70
2018-08-06T04:00:10.387Z,12.70
2018-08-06T04:02:38.763Z,12.70
2018-08-06T04:05:08.467Z,12.70
2018-08-06T04:07:36.686Z,12.70
2018-08-06T04:10:05.444Z,12.70
2018-08-06T04:12:33.666Z,12.70
2018-08-06T04:15:01.875Z,12.70
2018-08-06T04:17:30.105Z,12.70
2018-08-06T04:19:58.342Z,12.80
2018-08-06T04:22:26.553Z,12.70
2018-08-06T04:24:54.788Z,12.70
2018-08-06T04:27:23.005Z,12.70
2018-08-06T04:29:51.262Z,12.80
2018-08-06T04:32:19.466Z,12.80
2018-08-06T04:34:47.663Z,12.90
2018-08-06T04:37:24.592Z,12.90
2018-08-06T04:39:52.922Z,13.00
2018-08-06T04:42:21.234Z,13.10
2018-08-06T04:44:49.470Z,13.10
2018-08-06T04:47:17.893Z,13.40
2018-08-06T04:49:46.375Z,13.60
2018-08-06T04:52:14.917Z,13.80
2018-08-06T04:54:43.136Z,14.10
2018-08-06T04:57:11.351Z,14.70
2018-08-06T04:59:39.571Z,14.90
2018-08-06T05:02:07.788Z,14.80
2018-08-06T05:04:36.012Z,14.70
2018-08-06T05:07:04.329Z,14.90
2018-08-06T05:09:43.408Z,15.00
2018-08-06T05:12:11.651Z,14.90
2018-08-06T05:14:40.965Z,14.70
2018-08-06T05:19:37.835Z,14.70
2018-08-06T05:22:06.398Z,14.70
2018-08-06T05:24:34.604Z,14.70
2018-08-06T05:27:02.854Z,14.70
2018-08-06T05:31:59.097Z,14.80
2018-08-06T05:34:27.379Z,14.80
2018-08-06T05:39:23.603Z,14.90
2018-08-06T05:41:51.840Z,15.00
2018-08-06T05:44:20.024Z,15.10
2018-08-06T05:46:48.252Z,15.20
2018-08-06T05:49:16.475Z,15.30
2018-08-06T05:51:44.707Z,15.40
2018-08-06T05:54:12.917Z,15.50
2018-08-06T05:56:41.134Z,15.60
2018-08-06T05:59:09.343Z,15.70
2018-08-06T06:01:37.599Z,15.90
2018-08-06T06:04:05.827Z,16.00
2018-08-06T06:06:34.060Z,16.00
2018-08-06T06:09:02.267Z,16.20
2018-08-06T06:11:30.540Z,16.30
2018-08-06T06:13:58.782Z,16.40
2018-08-06T06:16:27.077Z,16.60
2018-08-06T06:18:55.354Z,16.70
2018-08-06T06:21:23.589Z,16.80
2018-08-06T06:23:51.875Z,16.90
2018-08-06T06:26:20.143Z,17.00
2018-08-06T06:28:48.385Z,17.20
2018-08-06T06:31:16.887Z,17.40
2018-08-06T06:33:45.172Z,17.50
2018-08-06T06:36:13.428Z,17.60
2018-08-06T06:41:09.615Z,17.80
2018-08-06T06:43:37.864Z,17.90
2018-08-06T06:46:06.251Z,18.00
2018-08-06T06:48:34.736Z,18.20
2018-08-06T06:51:02.927Z,18.40
2018-08-06T06:53:31.149Z,18.50
2018-08-06T06:58:27.378Z,19.00
2018-08-06T07:00:55.586Z,19.20
2018-08-06T07:03:23.995Z,19.40
2018-08-06T07:05:52.385Z,19.60
2018-08-06T07:08:20.622Z,19.70
2018-08-06T07:10:48.836Z,19.90
2018-08-06T07:13:17.065Z,20.10
2018-08-06T07:15:45.299Z,20.30
2018-08-06T07:18:13.533Z,20.50
2018-08-06T07:20:41.770Z,20.70
2018-08-06T07:23:09.989Z,20.90
2018-08-06T07:25:38.184Z,21.50
2018-08-06T07:28:06.423Z,22.60
2018-08-06T07:30:34.635Z,24.70
2018-08-06T07:33:02.856Z,28.10
2018-08-06T07:35:31.071Z,31.80
2018-08-06T07:37:59.315Z,34.90
2018-08-06T07:40:27.512Z,36.30
2018-08-06T07:42:55.724Z,35.00
2018-08-06T07:45:23.941Z,34.40
2018-08-06T07:47:52.162Z,34.70
2018-08-06T07:50:20.808Z,35.90
2018-08-06T07:52:49.055Z,36.00
2018-08-06T07:55:17.412Z,37.30
2018-08-06T07:57:45.704Z,38.60
2018-08-06T08:00:15.352Z,38.10
2018-08-06T08:02:43.605Z,39.30
2018-08-06T08:05:13.314Z,38.90
2018-08-06T08:07:42.978Z,37.20
2018-08-06T08:10:14.320Z,38.10
2018-08-06T08:12:43.366Z,38.70
2018-08-06T08:15:14.439Z,38.80
2018-08-06T08:17:42.998Z,40.10
2018-08-06T08:20:13.136Z,40.50
2018-08-06T08:22:41.555Z,41.00
2018-08-06T08:25:11.986Z,40.10
2018-08-06T08:27:40.526Z,39.70
2018-08-06T08:30:10.185Z,39.90
2018-08-06T08:32:38.404Z,40.10
2018-08-06T08:35:07.130Z,40.50
2018-08-06T08:37:35.824Z,41.30
2018-08-06T08:40:06.694Z,40.60
2018-08-06T08:42:34.949Z,37.90
2018-08-06T08:45:03.159Z,36.60
2018-08-06T08:47:31.358Z,37.40
2018-08-06T08:49:59.611Z,38.70
2018-08-06T08:52:27.809Z,38.10
2018-08-06T08:54:56.045Z,38.50
2018-08-06T08:57:24.265Z,38.80
2018-08-06T08:59:52.521Z,39.90
2018-08-06T09:02:20.726Z,40.20
2018-08-06T09:04:49.324Z,40.30
2018-08-06T09:07:17.576Z,40.50
2018-08-06T09:09:45.806Z,39.80
2018-08-06T09:12:14.016Z,40.00
2018-08-06T09:14:42.255Z,40.60
2018-08-06T09:17:10.587Z,40.70
2018-08-06T09:19:38.813Z,41.10
2018-08-06T09:22:07.432Z,40.90
2018-08-06T09:24:35.645Z,40.90
2018-08-06T09:27:03.864Z,40.40
2018-08-06T09:29:32.097Z,40.20
2018-08-06T09:32:00.373Z,40.20
2018-08-06T09:34:28.605Z,38.40
2018-08-06T09:36:56.814Z,38.50
2018-08-06T09:39:25.058Z,39.10
2018-08-06T09:41:53.267Z,39.20
2018-08-06T09:44:21.501Z,38.90
2018-08-06T09:46:49.720Z,39.40
2018-08-06T09:49:17.951Z,39.40
2018-08-06T09:51:46.150Z,39.50
2018-08-06T09:54:14.384Z,40.30
2018-08-06T09:56:42.587Z,39.90
2018-08-06T09:59:10.835Z,39.50
2018-08-06T10:01:44.424Z,39.50
2018-08-06T10:06:40.796Z,38.80
2018-08-06T10:09:10.017Z,39.10
2018-08-06T10:11:38.394Z,39.10
2018-08-06T10:14:07.007Z,38.80
2018-08-06T10:16:35.243Z,38.30
2018-08-06T10:19:04.327Z,37.80
2018-08-06T10:21:32.407Z,37.20
2018-08-06T10:24:00.707Z,34.30
2018-08-06T10:26:29.160Z,32.40
2018-08-06T10:28:57.415Z,30.60
2018-08-06T10:31:25.846Z,29.70
2018-08-06T10:33:54.318Z,29.60
2018-08-06T10:36:22.582Z,29.50
2018-08-06T10:38:50.783Z,29.50
2018-08-06T10:41:19.015Z,29.80
2018-08-06T10:43:47.220Z,30.00
2018-08-06T10:46:15.706Z,30.30
2018-08-06T10:48:44.445Z,30.60
2018-08-06T10:51:12.639Z,30.70
2018-08-06T10:53:40.858Z,30.90
2018-08-06T10:58:37.096Z,31.10
2018-08-06T11:01:05.353Z,31.10
2018-08-06T11:03:33.574Z,31.30
2018-08-06T11:06:01.807Z,31.20
2018-08-06T11:08:30.011Z,31.10
2018-08-06T11:10:58.243Z,31.20
2018-08-06T11:13:26.462Z,31.30
2018-08-06T11:15:54.692Z,31.40
2018-08-06T11:18:22.882Z,31.50
2018-08-06T11:20:51.111Z,31.50
2018-08-06T11:23:19.322Z,31.60
2018-08-06T11:25:47.573Z,31.70
2018-08-06T11:28:15.826Z,31.70
2018-08-06T11:30:44.077Z,31.70
2018-08-06T11:33:12.291Z,31.60
2018-08-06T11:35:40.542Z,31.50
2018-08-06T11:38:08.731Z,31.50
2018-08-06T11:40:36.980Z,31.50
2018-08-06T11:43:05.209Z,31.60
2018-08-06T11:45:33.450Z,31.70
2018-08-06T11:48:01.684Z,31.60
2018-08-06T11:50:29.928Z,31.50
2018-08-06T11:52:58.136Z,31.60
2018-08-06T11:55:26.388Z,31.80
2018-08-06T11:57:54.629Z,31.90
2018-08-06T12:00:24.788Z,32.10
2018-08-06T12:02:53.016Z,32.00
2018-08-06T12:05:21.242Z,31.90
2018-08-06T12:07:49.452Z,31.70
2018-08-06T12:10:18.726Z,31.60
2018-08-06T12:12:47.908Z,31.40
2018-08-06T12:15:16.176Z,31.30
2018-08-06T12:17:44.644Z,31.50
2018-08-06T12:20:14.506Z,31.60
2018-08-06T12:22:43.750Z,31.60
2018-08-06T12:25:12.855Z,31.40
2018-08-06T12:27:41.126Z,31.20
2018-08-06T12:30:16.784Z,31.10
2018-08-06T12:32:45.668Z,31.00
2018-08-06T12:35:14.360Z,31.00
2018-08-06T12:37:42.747Z,31.00
2018-08-06T12:40:13.276Z,30.90
2018-08-06T12:42:41.661Z,30.80
2018-08-06T12:45:11.032Z,30.90
2018-08-06T12:47:39.945Z,30.80
2018-08-06T12:50:09.357Z,30.90
2018-08-06T12:52:38.041Z,31.00
2018-08-06T12:55:07.087Z,30.90
2018-08-06T12:57:35.495Z,31.00
2018-08-06T13:00:03.949Z,31.00
2018-08-06T13:02:32.254Z,30.90
2018-08-06T13:05:00.489Z,30.80
2018-08-06T13:07:28.718Z,30.80
2018-08-06T13:09:57.019Z,30.90
2018-08-06T13:12:25.256Z,30.80
2018-08-06T13:14:53.504Z,30.60
2018-08-06T13:17:21.759Z,30.40
2018-08-06T13:19:49.990Z,30.20
2018-08-06T13:22:18.220Z,30.10
2018-08-06T13:24:46.461Z,30.00
2018-08-06T13:27:14.681Z,30.00
2018-08-06T13:29:42.895Z,29.90
2018-08-06T13:32:11.114Z,29.90
2018-08-06T13:34:39.353Z,29.90
2018-08-06T13:37:07.609Z,29.90
2018-08-06T13:39:35.919Z,30.00
2018-08-06T13:42:04.152Z,30.10
2018-08-06T13:47:00.364Z,30.00
2018-08-06T13:49:28.602Z,30.20
2018-08-06T13:51:56.840Z,30.30
2018-08-06T13:54:25.067Z,30.40
2018-08-06T13:56:53.340Z,30.40
2018-08-06T13:59:21.607Z,30.50
2018-08-06T14:04:17.757Z,30.30
2018-08-06T14:06:45.984Z,30.20
2018-08-06T14:09:14.223Z,30.20
2018-08-06T14:11:42.489Z,30.10
2018-08-06T14:14:11.086Z,30.20
2018-08-06T14:16:39.524Z,30.10
2018-08-06T14:19:07.743Z,30.10
2018-08-06T14:21:36.012Z,30.20
2018-08-06T14:24:04.401Z,30.30
2018-08-06T14:26:32.660Z,30.20
2018-08-06T14:29:00.934Z,30.10
2018-08-06T14:31:29.186Z,30.10
2018-08-06T14:33:57.372Z,30.10
2018-08-06T14:36:25.627Z,30.10
2018-08-06T14:38:53.851Z,30.10
2018-08-06T14:41:22.059Z,30.10
2018-08-06T14:43:50.545Z,30.00
2018-08-06T14:46:18.759Z,29.90
2018-08-06T14:48:47.015Z,29.80
2018-08-06T14:51:15.248Z,29.70
2018-08-06T14:53:43.502Z,29.60
2018-08-06T14:56:11.712Z,29.70
2018-08-06T14:58:39.960Z,29.80
2018-08-06T15:01:08.182Z,29.80
2018-08-06T15:03:36.415Z,29.80
2018-08-06T15:06:04.658Z,29.80
2018-08-06T15:08:32.911Z,29.90
2018-08-06T15:11:01.224Z,29.80
2018-08-06T15:13:30.505Z,29.80
2018-08-06T15:15:58.746Z,29.80
2018-08-06T15:18:27.040Z,29.80
2018-08-06T15:20:55.226Z,29.80
2018-08-06T15:23:23.466Z,29.80
2018-08-06T15:25:51.707Z,29.80
2018-08-06T15:30:48.041Z,29.80
2018-08-06T15:33:16.272Z,29.70
2018-08-06T15:35:44.478Z,29.60
2018-08-06T15:38:12.695Z,29.50
2018-08-06T15:40:40.913Z,29.50
2018-08-06T15:43:09.184Z,29.40
2018-08-06T15:45:37.394Z,29.40
2018-08-06T15:48:05.812Z,29.40
2018-08-06T15:50:34.039Z,29.40
2018-08-06T15:53:02.279Z,29.40
2018-08-06T15:55:30.492Z,29.30
2018-08-06T15:57:58.740Z,29.30
2018-08-06T16:00:27.000Z,29.20
2018-08-06T16:02:55.255Z,29.20
2018-08-06T16:05:23.488Z,29.20
2018-08-06T16:07:51.732Z,29.10
2018-08-06T16:10:19.983Z,29.00
2018-08-06T16:12:48.212Z,29.00
2018-08-06T16:15:16.803Z,29.00
2018-08-06T16:20:15.584Z,28.90
2018-08-06T16:22:43.833Z,28.80
2018-08-06T16:25:12.477Z,28.70
2018-08-06T16:27:40.952Z,28.60
2018-08-06T16:30:12.450Z,28.60
2018-08-06T16:32:40.698Z,28.50
2018-08-06T16:35:08.931Z,28.40
2018-08-06T16:37:37.209Z,28.30
2018-08-06T16:40:05.464Z,28.30
2018-08-06T16:42:33.690Z,28.30
2018-08-06T16:45:01.946Z,28.20
2018-08-06T16:49:58.172Z,28.00
2018-08-06T16:52:26.410Z,27.90
2018-08-06T16:54:54.641Z,27.90
2018-08-06T16:57:22.976Z,27.80
2018-08-06T16:59:51.226Z,27.80
2018-08-06T17:02:19.485Z,27.70
2018-08-06T17:04:47.733Z,27.60
2018-08-06T17:09:43.988Z,27.40
2018-08-06T17:12:12.212Z,27.40
2018-08-06T17:14:40.449Z,27.30
2018-08-06T17:17:08.703Z,27.20
2018-08-06T17:22:05.028Z,27.00
2018-08-06T17:24:33.347Z,26.90
2018-08-06T17:27:01.596Z,26.80
2018-08-06T17:31:57.906Z,26.60
2018-08-06T17:34:26.146Z,26.50
2018-08-06T17:36:54.358Z,26.40
2018-08-06T17:39:22.584Z,26.30
2018-08-06T17:41:50.822Z,26.10
2018-08-06T17:44:19.078Z,26.00
2018-08-06T17:46:47.293Z,25.90
2018-08-06T17:49:15.513Z,25.70
2018-08-06T17:51:43.740Z,25.50
2018-08-06T17:54:11.965Z,25.50
2018-08-06T17:56:40.214Z,25.50
2018-08-06T17:59:08.442Z,25.30
2018-08-06T18:01:36.676Z,25.20
2018-08-06T18:04:04.914Z,25.10
2018-08-06T18:06:33.343Z,24.90
2018-08-06T18:09:01.571Z,24.80
2018-08-06T18:11:29.799Z,24.70
2018-08-06T18:13:58.044Z,24.60
2018-08-06T18:16:26.281Z,24.50
2018-08-06T18:18:54.824Z,24.40
2018-08-06T18:21:23.050Z,24.10
2018-08-06T18:23:51.315Z,24.00
2018-08-06T18:26:19.524Z,23.80
2018-08-06T18:28:47.757Z,23.70
2018-08-06T18:31:15.983Z,23.50
2018-08-06T18:33:44.210Z,23.50
2018-08-06T18:36:12.457Z,23.40
2018-08-06T18:38:40.667Z,23.20
2018-08-06T18:41:08.916Z,23.10
2018-08-06T18:46:05.181Z,22.80
2018-08-06T18:48:33.505Z,22.70
2018-08-06T18:51:01.733Z,22.60
2018-08-06T18:53:30.006Z,22.50
2018-08-06T18:55:58.227Z,22.40
2018-08-06T18:58:26.452Z,22.30
2018-08-06T19:00:54.697Z,22.10
2018-08-06T19:03:22.914Z,22.00
2018-08-06T19:05:51.158Z,22.00
2018-08-06T19:08:19.663Z,21.80
2018-08-06T19:10:48.019Z,21.80
2018-08-06T19:13:21.690Z,21.70
2018-08-06T19:15:49.931Z,21.60
2018-08-06T19:18:23.378Z,21.50
2018-08-06T19:20:51.621Z,21.30
2018-08-06T19:23:19.828Z,21.30
2018-08-06T19:25:48.077Z,21.10
2018-08-06T19:28:16.307Z,21.00
2018-08-06T19:30:49.816Z,20.90
2018-08-06T19:33:18.007Z,20.90
2018-08-06T19:35:46.236Z,20.80
2018-08-06T19:38:14.450Z,20.80
2018-08-06T19:40:42.677Z,20.70
2018-08-06T19:43:16.303Z,20.60
2018-08-06T19:45:44.519Z,20.50
2018-08-06T19:48:12.742Z,20.40
2018-08-06T19:50:42.631Z,20.40
2018-08-06T19:53:10.850Z,20.30
2018-08-06T19:55:44.588Z,20.20
2018-08-06T19:58:12.808Z,20.20
2018-08-06T20:00:41.053Z,20.10
2018-08-06T20:03:09.289Z,20.10
2018-08-06T20:05:37.546Z,20.00
2018-08-06T20:08:05.868Z,20.00
2018-08-06T20:10:34.329Z,19.90
2018-08-06T20:13:02.492Z,19.80
2018-08-06T20:15:30.743Z,19.70
2018-08-06T20:17:59.025Z,19.60
2018-08-06T20:20:27.244Z,19.50
2018-08-06T20:22:55.467Z,19.50
2018-08-06T20:25:23.931Z,19.40
2018-08-06T20:27:52.162Z,19.30
2018-08-06T20:30:21.629Z,19.30
2018-08-06T20:32:49.920Z,19.20
2018-08-06T20:35:18.752Z,19.20
2018-08-06T20:37:47.008Z,19.10
2018-08-06T20:40:15.247Z,19.10
2018-08-06T20:42:44.503Z,19.00
2018-08-06T20:45:14.919Z,19.00
2018-08-06T20:47:43.698Z,18.90
2018-08-06T20:50:13.825Z,18.90
2018-08-06T20:52:42.082Z,18.90
2018-08-06T20:55:11.020Z,18.80
2018-08-06T20:57:39.691Z,18.80
2018-08-06T21:00:10.529Z,18.70
2018-08-06T21:02:38.998Z,18.70
2018-08-06T21:05:07.232Z,18.60
2018-08-06T21:07:35.462Z,18.60
2018-08-06T21:12:31.687Z,18.50
2018-08-06T21:14:59.878Z,18.40
2018-08-06T21:17:28.153Z,18.30
2018-08-06T21:19:56.367Z,18.30
2018-08-06T21:22:24.589Z,18.20
2018-08-06T21:24:52.791Z,18.20
2018-08-06T21:27:21.036Z,18.10
2018-08-06T21:29:49.425Z,18.10
2018-08-06T21:32:17.690Z,18.00
2018-08-06T21:34:45.904Z,17.90
2018-08-06T21:37:14.254Z,17.90
2018-08-06T21:39:42.460Z,17.80
2018-08-06T21:42:10.667Z,17.80
2018-08-06T21:44:38.931Z,17.80
2018-08-06T21:47:07.361Z,17.70
2018-08-06T21:52:03.621Z,17.60
2018-08-06T21:54:31.828Z,17.60
2018-08-06T21:59:28.025Z,17.50
2018-08-06T22:04:24.268Z,17.50
2018-08-06T22:06:52.487Z,17.40
2018-08-06T22:09:20.967Z,17.40
2018-08-06T22:11:49.214Z,17.30
2018-08-06T22:14:17.502Z,17.30
2018-08-06T22:16:45.727Z,17.20
2018-08-06T22:19:13.952Z,17.20
2018-08-06T22:21:42.176Z,17.20
2018-08-06T22:24:10.418Z,17.20
2018-08-06T22:26:38.680Z,17.10
2018-08-06T22:29:06.892Z,17.00
2018-08-06T22:31:35.095Z,17.00
2018-08-06T22:34:03.324Z,17.00
2018-08-06T22:36:31.642Z,17.00
2018-08-06T22:38:59.883Z,17.00
2018-08-06T22:41:28.109Z,16.90
2018-08-06T22:43:56.360Z,16.90
2018-08-06T22:46:24.563Z,16.90
2018-08-06T22:48:52.793Z,16.80
2018-08-06T22:51:21.005Z,16.80
2018-08-06T22:53:49.245Z,16.80
2018-08-06T22:58:45.452Z,16.80
2018-08-06T23:01:13.655Z,16.80
2018-08-06T23:03:41.882Z,16.70
2018-08-06T23:06:10.292Z,16.70
2018-08-06T23:08:38.804Z,16.60
2018-08-06T23:11:07.656Z,16.50
2018-08-06T23:13:35.870Z,16.50
2018-08-06T23:16:04.096Z,16.50
2018-08-06T23:18:32.346Z,16.40
2018-08-06T23:21:00.555Z,16.40
2018-08-06T23:23:28.784Z,16.40
2018-08-06T23:25:56.996Z,16.40
2018-08-06T23:28:25.214Z,16.40
2018-08-06T23:30:53.428Z,16.30
2018-08-06T23:33:21.644Z,16.30
2018-08-06T23:35:49.855Z,16.30
2018-08-06T23:38:18.066Z,16.20
2018-08-06T23:40:46.266Z,16.20
2018-08-06T23:43:14.466Z,16.20
2018-08-06T23:45:42.676Z,16.10
2018-08-06T23:48:10.898Z,16.10
2018-08-06T23:50:39.100Z,16.00
2018-08-06T23:53:07.354Z,16.00
2018-08-06T23:55:35.557Z,16.00
2018-08-06T23:58:03.980Z,16.00
